Aviation Digital Data Service (ADDS)

Output produced by METARs form (1554 UTC 03 June 2020)
found at http://www.aviationweather.gov/metar/data/
 
Forecast for: FKKL (MAROUA SALAK , CM)
Text: TAF FKKL 031100Z 0312/0324 35009KT CAVOK
Forecast period: 1200 UTC 03 June 2020 to 0000 UTC 04 June 2020
Forecast type: FROM: standard forecast or significant change
Winds: from the N (350 degrees) at 10 MPH (9 knots; 4.6 m/s)
Visibility: 6 or more miles 10+ km)
Ceiling: unknown
Clouds: missing
Weather: NSW  (no significant weather)
Text: PROB30
Forecast period: 1300 to 1800 UTC 03 June 2020
Forecast type: TEMPORARY: The following changes expected for less than half the time period
Visibility: missing
Ceiling: at least 12,000 feet AGL
Clouds: few clouds at 4000 feet AGL
few clouds at 4500 feet AGL
Weather: TS  (thunderstorm)